sensor_id;sensor_type;location;lat;lon;timestamp;pressure;altitude;pressure_sealevel;temperature;humidity
82951;BME280;72737;53.332;6.514;2023-12-14T00:01:16;101007.50;;;14.26;63.55
82951;BME280;72737;53.332;6.514;2023-12-14T00:03:42;101013.50;;;14.28;63.38
82951;BME280;72737;53.332;6.514;2023-12-14T00:06:09;101023.03;;;14.31;63.35
82951;BME280;72737;53.332;6.514;2023-12-14T00:08:35;101030.69;;;14.29;63.94
82951;BME280;72737;53.332;6.514;2023-12-14T00:11:08;101017.88;;;14.24;63.45
82951;BME280;72737;53.332;6.514;2023-12-14T00:13:34;101030.41;;;14.30;63.70
82951;BME280;72737;53.332;6.514;2023-12-14T00:16:00;101035.66;;;14.27;63.51
82951;BME280;72737;53.332;6.514;2023-12-14T00:18:25;101036.16;;;14.29;63.22
82951;BME280;72737;53.332;6.514;2023-12-14T00:20:51;101044.06;;;14.30;63.23
82951;BME280;72737;53.332;6.514;2023-12-14T00:23:18;101043.56;;;14.28;63.26
82951;BME280;72737;53.332;6.514;2023-12-14T00:25:43;101050.34;;;14.31;63.24
82951;BME280;72737;53.332;6.514;2023-12-14T00:28:09;101052.28;;;14.30;63.24
82951;BME280;72737;53.332;6.514;2023-12-14T00:30:34;101061.88;;;14.28;63.66
82951;BME280;72737;53.332;6.514;2023-12-14T00:32:59;101058.06;;;14.24;63.36
82951;BME280;72737;53.332;6.514;2023-12-14T00:35:25;101060.25;;;14.27;64.00
82951;BME280;72737;53.332;6.514;2023-12-14T00:37:50;101064.63;;;14.28;63.82
82951;BME280;72737;53.332;6.514;2023-12-14T00:40:16;101070.94;;;14.23;64.03
82951;BME280;72737;53.332;6.514;2023-12-14T00:42:41;101078.63;;;14.21;64.09
82951;BME280;72737;53.332;6.514;2023-12-14T00:45:07;101077.25;;;14.18;63.63
82951;BME280;72737;53.332;6.514;2023-12-14T00:47:33;101084.94;;;14.16;64.15
82951;BME280;72737;53.332;6.514;2023-12-14T00:49:58;101084.94;;;14.16;63.31
82951;BME280;72737;53.332;6.514;2023-12-14T00:52:24;101084.13;;;14.16;63.36
82951;BME280;72737;53.332;6.514;2023-12-14T00:54:49;101086.28;;;14.19;63.24
82951;BME280;72737;53.332;6.514;2023-12-14T00:57:14;101089.81;;;14.19;63.81
82951;BME280;72737;53.332;6.514;2023-12-14T00:59:40;101108.69;;;14.21;63.20
82951;BME280;72737;53.332;6.514;2023-12-14T01:02:06;101110.59;;;14.21;63.09
82951;BME280;72737;53.332;6.514;2023-12-14T01:04:31;101112.75;;;14.24;63.63
82951;BME280;72737;53.332;6.514;2023-12-14T01:06:57;101119.38;;;14.17;63.70
82951;BME280;72737;53.332;6.514;2023-12-14T01:09:22;101120.19;;;14.18;63.63
82951;BME280;72737;53.332;6.514;2023-12-14T01:11:47;101125.66;;;14.18;63.07
82951;BME280;72737;53.332;6.514;2023-12-14T01:14:13;101115.25;;;14.20;62.90
82951;BME280;72737;53.332;6.514;2023-12-14T01:16:38;101122.38;;;14.16;63.09
82951;BME280;72737;53.332;6.514;2023-12-14T01:19:04;101130.34;;;14.12;63.66
82951;BME280;72737;53.332;6.514;2023-12-14T01:21:31;101131.69;;;14.15;63.05
82951;BME280;72737;53.332;6.514;2023-12-14T01:23:57;101142.06;;;14.18;62.90
82951;BME280;72737;53.332;6.514;2023-12-14T01:26:22;101147.53;;;14.18;62.90
82951;BME280;72737;53.332;6.514;2023-12-14T01:28:48;101144.50;;;14.19;63.29
82951;BME280;72737;53.332;6.514;2023-12-14T01:31:13;101150.78;;;14.20;63.31
82951;BME280;72737;53.332;6.514;2023-12-14T01:33:39;101166.13;;;14.16;63.29
82951;BME280;72737;53.332;6.514;2023-12-14T01:36:04;101164.47;;;14.15;63.62
82951;BME280;72737;53.332;6.514;2023-12-14T01:38:30;101167.22;;;14.15;62.98
82951;BME280;72737;53.332;6.514;2023-12-14T01:40:55;101170.78;;;14.15;63.49
82951;BME280;72737;53.332;6.514;2023-12-14T01:43:21;101169.13;;;14.14;62.92
82951;BME280;72737;53.332;6.514;2023-12-14T01:45:47;101169.66;;;14.16;63.08
82951;BME280;72737;53.332;6.514;2023-12-14T01:48:12;101165.53;;;14.19;63.06
82951;BME280;72737;53.332;6.514;2023-12-14T01:50:38;101165.03;;;14.17;62.60
82951;BME280;72737;53.332;6.514;2023-12-14T01:53:03;101169.41;;;14.18;62.72
82951;BME280;72737;53.332;6.514;2023-12-14T01:55:29;101178.69;;;14.17;63.23
82951;BME280;72737;53.332;6.514;2023-12-14T01:57:54;101181.13;;;14.18;63.37
82951;BME280;72737;53.332;6.514;2023-12-14T02:02:59;101186.06;;;14.16;62.62
82951;BME280;72737;53.332;6.514;2023-12-14T02:05:24;101189.63;;;14.17;62.51
82951;BME280;72737;53.332;6.514;2023-12-14T02:07:49;101192.34;;;14.17;62.58
82951;BME280;72737;53.332;6.514;2023-12-14T02:10:15;101193.44;;;14.16;63.17
82951;BME280;72737;53.332;6.514;2023-12-14T02:12:40;101193.44;;;14.16;63.42
82951;BME280;72737;53.332;6.514;2023-12-14T02:15:06;101193.72;;;14.14;63.30
82951;BME280;72737;53.332;6.514;2023-12-14T02:17:32;101198.91;;;14.16;63.09
82951;BME280;72737;53.332;6.514;2023-12-14T02:19:57;101202.75;;;14.15;63.23
82951;BME280;72737;53.332;6.514;2023-12-14T02:22:23;101209.31;;;14.14;63.39
82951;BME280;72737;53.332;6.514;2023-12-14T02:24:49;101213.69;;;14.15;63.27
82951;BME280;72737;53.332;6.514;2023-12-14T02:27:14;101210.44;;;14.13;63.15
82951;BME280;72737;53.332;6.514;2023-12-14T02:29:39;101222.97;;;14.14;62.76
82951;BME280;72737;53.332;6.514;2023-12-14T02:32:05;101226.84;;;14.13;63.30
82951;BME280;72737;53.332;6.514;2023-12-14T02:34:31;101222.47;;;14.12;63.01
82951;BME280;72737;53.332;6.514;2023-12-14T02:36:56;101226.84;;;14.13;63.49
82951;BME280;72737;53.332;6.514;2023-12-14T02:39:22;101228.75;;;14.12;62.94
82951;BME280;72737;53.332;6.514;2023-12-14T02:41:47;101230.66;;;14.12;62.88
82951;BME280;72737;53.332;6.514;2023-12-14T02:44:13;101231.78;;;14.06;63.03
82951;BME280;72737;53.332;6.514;2023-12-14T02:46:38;101223.88;;;14.04;63.11
82951;BME280;72737;53.332;6.514;2023-12-14T02:49:03;101227.13;;;14.06;63.66
82951;BME280;72737;53.332;6.514;2023-12-14T02:51:29;101242.97;;;14.09;63.46
82951;BME280;72737;53.332;6.514;2023-12-14T02:53:54;101240.53;;;14.08;63.06
82951;BME280;72737;53.332;6.514;2023-12-14T02:56:22;101233.66;;;14.10;63.57
82951;BME280;72737;53.332;6.514;2023-12-14T02:58:47;101235.06;;;14.08;63.53
82951;BME280;72737;53.332;6.514;2023-12-14T03:01:19;101233.44;;;14.07;63.65
82951;BME280;72737;53.332;6.514;2023-12-14T03:03:45;101251.75;;;14.01;63.94
82951;BME280;72737;53.332;6.514;2023-12-14T03:06:11;101246.03;;;14.03;63.19
82951;BME280;72737;53.332;6.514;2023-12-14T03:08:36;101236.19;;;14.02;63.05
82951;BME280;72737;53.332;6.514;2023-12-14T03:11:03;101250.13;;;14.00;63.74
82951;BME280;72737;53.332;6.514;2023-12-14T03:13:28;101258.06;;;14.02;62.99
82951;BME280;72737;53.332;6.514;2023-12-14T03:15:54;101272.81;;;14.01;63.55
82951;BME280;72737;53.332;6.514;2023-12-14T03:18:19;101265.16;;;14.03;63.26
82951;BME280;72737;53.332;6.514;2023-12-14T03:20:45;101267.06;;;14.02;63.54
82951;BME280;72737;53.332;6.514;2023-12-14T03:23:10;101277.47;;;14.00;62.95
82951;BME280;72737;53.332;6.514;2023-12-14T03:25:35;101280.47;;;13.99;63.55
82951;BME280;72737;53.332;6.514;2023-12-14T03:28:01;101273.63;;;14.01;62.80
82951;BME280;72737;53.332;6.514;2023-12-14T03:30:26;101281.56;;;14.03;63.04
82951;BME280;72737;53.332;6.514;2023-12-14T03:32:52;101288.66;;;13.99;63.55
82951;BME280;72737;53.332;6.514;2023-12-14T03:35:17;101290.53;;;14.03;63.19
82951;BME280;72737;53.332;6.514;2023-12-14T03:37:43;101295.22;;;14.03;63.28
82951;BME280;72737;53.332;6.514;2023-12-14T03:40:08;101294.66;;;14.01;62.71
82951;BME280;72737;53.332;6.514;2023-12-14T03:42:35;101288.69;;;13.94;62.90
82951;BME280;72737;53.332;6.514;2023-12-14T03:45:00;101295.50;;;14.01;63.06
82951;BME280;72737;53.332;6.514;2023-12-14T03:47:26;101296.31;;;14.02;62.88
82951;BME280;72737;53.332;6.514;2023-12-14T03:49:51;101301.47;;;14.03;62.81
82951;BME280;72737;53.332;6.514;2023-12-14T03:52:17;101309.16;;;14.01;62.74
82951;BME280;72737;53.332;6.514;2023-12-14T03:54:42;101305.34;;;13.97;62.95
82951;BME280;72737;53.332;6.514;2023-12-14T03:57:07;101306.16;;;14.03;63.23
82951;BME280;72737;53.332;6.514;2023-12-14T03:59:33;101306.66;;;14.05;63.16
82951;BME280;72737;53.332;6.514;2023-12-14T04:01:59;101302.84;;;14.06;63.01
82951;BME280;72737;53.332;6.514;2023-12-14T04:04:24;101303.41;;;14.03;62.51
82951;BME280;72737;53.332;6.514;2023-12-14T04:06:50;101305.59;;;14.01;63.65
82951;BME280;72737;53.332;6.514;2023-12-14T04:09:16;101311.88;;;14.01;62.73
82951;BME280;72737;53.332;6.514;2023-12-14T04:11:42;101309.97;;;14.02;63.34
82951;BME280;72737;53.332;6.514;2023-12-14T04:14:07;101316.25;;;14.02;63.37
82951;BME280;72737;53.332;6.514;2023-12-14T04:16:34;101324.72;;;14.01;63.04
82951;BME280;72737;53.332;6.514;2023-12-14T04:19:00;101325.28;;;14.03;63.24
82951;BME280;72737;53.332;6.514;2023-12-14T04:21:25;101338.94;;;14.03;62.89
82951;BME280;72737;53.332;6.514;2023-12-14T04:23:50;101339.72;;;14.03;63.41
82951;BME280;72737;53.332;6.514;2023-12-14T04:26:16;101344.94;;;14.05;62.60
82951;BME280;72737;53.332;6.514;2023-12-14T04:28:41;101339.47;;;14.05;63.02
82951;BME280;72737;53.332;6.514;2023-12-14T04:31:09;101339.47;;;14.05;63.36
82951;BME280;72737;53.332;6.514;2023-12-14T04:33:35;101341.66;;;14.03;63.41
82951;BME280;72737;53.332;6.514;2023-12-14T04:36:01;101356.13;;;14.03;63.50
82951;BME280;72737;53.332;6.514;2023-12-14T04:38:26;101357.25;;;14.02;63.35
82951;BME280;72737;53.332;6.514;2023-12-14T04:40:51;101360.81;;;14.03;62.79
82951;BME280;72737;53.332;6.514;2023-12-14T04:43:17;101360.81;;;14.03;62.87
82951;BME280;72737;53.332;6.514;2023-12-14T04:45:42;101361.34;;;14.00;62.71
82951;BME280;72737;53.332;6.514;2023-12-14T04:48:09;101366.81;;;14.00;63.36
82951;BME280;72737;53.332;6.514;2023-12-14T04:50:34;101370.38;;;14.00;63.18
82951;BME280;72737;53.332;6.514;2023-12-14T04:53:00;101374.19;;;13.99;63.55
82951;BME280;72737;53.332;6.514;2023-12-14T04:55:25;101378.28;;;14.02;63.25
82951;BME280;72737;53.332;6.514;2023-12-14T04:57:50;101388.66;;;14.00;62.88
82951;BME280;72737;53.332;6.514;2023-12-14T05:00:16;101387.03;;;13.94;63.45
82951;BME280;72737;53.332;6.514;2023-12-14T05:02:46;101390.91;;;13.93;62.87
82951;BME280;72737;53.332;6.514;2023-12-14T05:05:13;101397.69;;;14.00;65.38
82951;BME280;72737;53.332;6.514;2023-12-14T05:07:38;101402.88;;;14.02;64.18
82951;BME280;72737;53.332;6.514;2023-12-14T05:10:04;101408.34;;;14.02;64.34
82951;BME280;72737;53.332;6.514;2023-12-14T05:12:30;101415.97;;;14.05;64.02
82951;BME280;72737;53.332;6.514;2023-12-14T05:14:57;101418.16;;;14.13;63.05
82951;BME280;72737;53.332;6.514;2023-12-14T05:17:22;101418.13;;;14.23;62.79
82951;BME280;72737;53.332;6.514;2023-12-14T05:19:47;101419.16;;;14.32;63.30
82951;BME280;72737;53.332;6.514;2023-12-14T05:22:13;101418.06;;;14.43;62.80
82951;BME280;72737;53.332;6.514;2023-12-14T05:24:38;101429.00;;;14.33;63.04
82951;BME280;72737;53.332;6.514;2023-12-14T05:27:04;101433.13;;;14.26;64.09
82951;BME280;72737;53.332;6.514;2023-12-14T05:29:29;101425.50;;;14.23;63.96
82951;BME280;72737;53.332;6.514;2023-12-14T05:31:55;101432.31;;;14.20;64.18
82951;BME280;72737;53.332;6.514;2023-12-14T05:34:20;101436.16;;;14.19;64.83
82951;BME280;72737;53.332;6.514;2023-12-14T05:36:46;101441.63;;;14.19;65.05
82951;BME280;72737;53.332;6.514;2023-12-14T05:39:11;101446.00;;;14.20;64.53
82951;BME280;72737;53.332;6.514;2023-12-14T05:41:40;101441.91;;;14.17;64.62
82951;BME280;72737;53.332;6.514;2023-12-14T05:44:06;101447.63;;;14.21;64.76
82951;BME280;72737;53.332;6.514;2023-12-14T05:46:32;101464.84;;;14.22;64.95
82951;BME280;72737;53.332;6.514;2023-12-14T05:48:57;101464.03;;;14.21;65.36
82951;BME280;72737;53.332;6.514;2023-12-14T05:51:27;101472.78;;;14.23;65.11
82951;BME280;72737;53.332;6.514;2023-12-14T05:53:53;101476.31;;;14.24;65.25
82951;BME280;72737;53.332;6.514;2023-12-14T05:56:18;101477.94;;;14.25;65.26
82951;BME280;72737;53.332;6.514;2023-12-14T05:58:43;101481.78;;;14.24;65.99
82951;BME280;72737;53.332;6.514;2023-12-14T06:01:09;101488.63;;;14.26;65.72
82951;BME280;72737;53.332;6.514;2023-12-14T06:03:34;101489.97;;;14.24;66.38
82951;BME280;72737;53.332;6.514;2023-12-14T06:05:59;101496.00;;;14.26;65.44
82951;BME280;72737;53.332;6.514;2023-12-14T06:08:25;101488.63;;;14.26;65.59
82951;BME280;72737;53.332;6.514;2023-12-14T06:10:50;101495.72;;;14.32;65.88
82951;BME280;72737;53.332;6.514;2023-12-14T06:13:21;101486.44;;;14.38;66.56
82951;BME280;72737;53.332;6.514;2023-12-14T06:15:46;101491.91;;;14.38;66.55
82951;BME280;72737;53.332;6.514;2023-12-14T06:18:18;101482.56;;;14.34;65.87
82951;BME280;72737;53.332;6.514;2023-12-14T06:20:45;101498.16;;;14.34;65.97
82951;BME280;72737;53.332;6.514;2023-12-14T06:23:20;101495.16;;;14.30;65.62
82951;BME280;72737;53.332;6.514;2023-12-14T06:25:47;101447.16;;;13.94;65.19
82951;BME280;72737;53.332;6.514;2023-12-14T06:28:17;101512.66;;;14.29;65.56
82951;BME280;72737;53.332;6.514;2023-12-14T06:30:44;101520.59;;;14.31;64.86
82951;BME280;72737;53.332;6.514;2023-12-14T06:33:11;101526.63;;;14.28;65.86
82951;BME280;72737;53.332;6.514;2023-12-14T06:35:36;101515.44;;;14.14;65.26
82951;BME280;72737;53.332;6.514;2023-12-14T06:38:10;101526.34;;;14.24;65.49
82951;BME280;72737;53.332;6.514;2023-12-14T06:40:35;101525.81;;;14.22;65.33
82951;BME280;72737;53.332;6.514;2023-12-14T06:43:06;101520.38;;;14.17;64.60
82951;BME280;72737;53.332;6.514;2023-12-14T06:45:42;101456.53;;;13.72;65.33
82951;BME280;72737;53.332;6.514;2023-12-14T06:48:07;101525.28;;;14.05;64.90
82951;BME280;72737;53.332;6.514;2023-12-14T06:50:33;101461.69;;;13.69;64.56
82951;BME280;72737;53.332;6.514;2023-12-14T06:52:59;101543.06;;;14.17;64.66
82951;BME280;72737;53.332;6.514;2023-12-14T06:55:26;101551.78;;;14.19;64.73
82951;BME280;72737;53.332;6.514;2023-12-14T06:57:51;101549.34;;;14.13;64.06
82951;BME280;72737;53.332;6.514;2023-12-14T07:00:18;101547.41;;;14.08;64.29
82951;BME280;72737;53.332;6.514;2023-12-14T07:02:43;101509.75;;;13.85;63.90
82951;BME280;72737;53.332;6.514;2023-12-14T07:05:09;101567.66;;;14.17;64.01
82951;BME280;72737;53.332;6.514;2023-12-14T07:07:34;101550.44;;;14.17;64.06
82951;BME280;72737;53.332;6.514;2023-12-14T07:10:01;101530.78;;;13.95;63.90
82951;BME280;72737;53.332;6.514;2023-12-14T07:12:44;101555.09;;;14.06;64.27
82951;BME280;72737;53.332;6.514;2023-12-14T07:15:11;101523.16;;;13.82;64.05
82951;BME280;72737;53.332;6.514;2023-12-14T07:17:43;101599.91;;;14.10;63.98
82951;BME280;72737;53.332;6.514;2023-12-14T07:20:26;101555.38;;;13.95;64.01
82951;BME280;72737;53.332;6.514;2023-12-14T07:23:01;101573.97;;;14.03;64.54
82951;BME280;72737;53.332;6.514;2023-12-14T07:28:58;101540.38;;;13.77;63.90
82951;BME280;72737;53.332;6.514;2023-12-14T07:31:23;101563.56;;;13.95;64.03
82951;BME280;72737;53.332;6.514;2023-12-14T07:33:59;101593.34;;;14.06;63.63
82951;BME280;72737;53.332;6.514;2023-12-14T07:36:42;101593.88;;;14.08;63.81
82951;BME280;72737;53.332;6.514;2023-12-14T07:39:20;101599.66;;;13.97;64.25
82951;BME280;72737;53.332;6.514;2023-12-14T07:41:54;101565.22;;;13.81;63.57
82951;BME280;72737;53.332;6.514;2023-12-14T07:44:22;101608.38;;;13.99;63.43
82951;BME280;72737;53.332;6.514;2023-12-14T07:46:51;101594.19;;;13.82;63.63
82951;BME280;72737;53.332;6.514;2023-12-14T07:49:22;101582.97;;;13.83;63.91
82951;BME280;72737;53.332;6.514;2023-12-14T07:51:51;101637.09;;;14.01;64.07
82951;BME280;72737;53.332;6.514;2023-12-14T07:54:27;101610.56;;;13.87;63.84
82951;BME280;72737;53.332;6.514;2023-12-14T07:57:02;101582.44;;;13.66;63.55
82951;BME280;72737;53.332;6.514;2023-12-14T07:59:47;101636.53;;;13.94;64.13
82951;BME280;72737;53.332;6.514;2023-12-14T08:02:14;101609.47;;;13.57;63.64
82951;BME280;72737;53.332;6.514;2023-12-14T08:04:42;101621.50;;;13.77;63.51
82951;BME280;72737;53.332;6.514;2023-12-14T08:07:28;101633.78;;;13.74;63.58
82951;BME280;72737;53.332;6.514;2023-12-14T08:13:43;101666.31;;;13.91;63.92
82951;BME280;72737;53.332;6.514;2023-12-14T08:16:12;101647.41;;;13.54;63.73
82951;BME280;72737;53.332;6.514;2023-12-14T08:18:53;101646.91;;;13.72;63.96
82951;BME280;72737;53.332;6.514;2023-12-14T08:21:34;101674.25;;;13.87;63.90
82951;BME280;72737;53.332;6.514;2023-12-14T08:24:29;101672.34;;;13.88;63.35
82951;BME280;72737;53.332;6.514;2023-12-14T08:26:59;101643.09;;;13.68;63.77
82951;BME280;72737;53.332;6.514;2023-12-14T08:29:31;101643.59;;;13.65;63.29
82951;BME280;72737;53.332;6.514;2023-12-14T08:31:58;101642.78;;;13.59;63.36
82951;BME280;72737;53.332;6.514;2023-12-14T08:34:30;101635.38;;;13.45;63.64
82951;BME280;72737;53.332;6.514;2023-12-14T08:37:07;101668.44;;;13.68;63.71
82951;BME280;72737;53.332;6.514;2023-12-14T08:43:14;101693.91;;;13.89;63.91
82951;BME280;72737;53.332;6.514;2023-12-14T08:45:41;101664.09;;;13.62;63.46
82951;BME280;72737;53.332;6.514;2023-12-14T08:48:09;101672.56;;;13.61;63.64
82951;BME280;72737;53.332;6.514;2023-12-14T08:50:36;101680.75;;;13.66;63.91
82951;BME280;72737;53.332;6.514;2023-12-14T08:53:02;101686.78;;;13.73;63.62
82951;BME280;72737;53.332;6.514;2023-12-14T08:55:40;101694.69;;;13.74;63.22
82951;BME280;72737;53.332;6.514;2023-12-14T08:58:17;101679.34;;;13.58;63.48
82951;BME280;72737;53.332;6.514;2023-12-14T09:00:43;101742.00;;;13.85;63.06
82951;BME280;72737;53.332;6.514;2023-12-14T09:03:09;101683.22;;;13.62;63.49
82951;BME280;72737;53.332;6.514;2023-12-14T09:05:48;101702.34;;;13.72;63.41
82951;BME280;72737;53.332;6.514;2023-12-14T09:08:15;101728.88;;;13.82;62.85
82951;BME280;72737;53.332;6.514;2023-12-14T09:11:01;101740.06;;;13.81;63.51
82951;BME280;72737;53.332;6.514;2023-12-14T09:13:52;101737.34;;;13.81;62.93
82951;BME280;72737;53.332;6.514;2023-12-14T09:16:38;101744.44;;;13.82;63.00
82951;BME280;72737;53.332;6.514;2023-12-14T09:22:34;101697.94;;;13.56;62.82
82951;BME280;72737;53.332;6.514;2023-12-14T09:25:00;101702.81;;;13.49;63.46
82951;BME280;72737;53.332;6.514;2023-12-14T09:27:46;101715.16;;;13.57;63.18
82951;BME280;72737;53.332;6.514;2023-12-14T09:30:17;101734.31;;;13.72;62.88
82951;BME280;72737;53.332;6.514;2023-12-14T09:33:14;101753.72;;;13.81;62.84
82951;BME280;72737;53.332;6.514;2023-12-14T09:39:03;101705.53;;;13.44;63.46
82951;BME280;72737;53.332;6.514;2023-12-14T09:41:31;101749.63;;;13.78;63.48
82951;BME280;72737;53.332;6.514;2023-12-14T09:44:16;101767.94;;;13.78;63.36
82951;BME280;72737;53.332;6.514;2023-12-14T09:46:46;101765.22;;;13.78;62.71
82951;BME280;72737;53.332;6.514;2023-12-14T09:49:26;101718.94;;;13.51;63.20
82951;BME280;72737;53.332;6.514;2023-12-14T09:55:26;101728.25;;;13.55;63.15
82951;BME280;72737;53.332;6.514;2023-12-14T09:58:05;101767.91;;;13.72;63.38
82951;BME280;72737;53.332;6.514;2023-12-14T10:00:37;101741.06;;;13.49;62.97
82951;BME280;72737;53.332;6.514;2023-12-14T10:03:23;101736.16;;;13.51;63.51
82951;BME280;72737;53.332;6.514;2023-12-14T10:05:55;101733.16;;;13.48;62.52
82951;BME280;72737;53.332;6.514;2023-12-14T10:12:09;101768.13;;;13.61;62.72
82951;BME280;72737;53.332;6.514;2023-12-14T10:15:07;101750.34;;;13.53;62.75
82951;BME280;72737;53.332;6.514;2023-12-14T10:17:55;101790.59;;;13.73;62.75
82951;BME280;72737;53.332;6.514;2023-12-14T10:24:11;101800.13;;;13.70;63.13
82951;BME280;72737;53.332;6.514;2023-12-14T10:26:51;101749.78;;;13.46;62.63
82951;BME280;72737;53.332;6.514;2023-12-14T10:35:49;101790.28;;;13.69;62.73
82951;BME280;72737;53.332;6.514;2023-12-14T10:38:37;101768.13;;;13.56;63.22
82951;BME280;72737;53.332;6.514;2023-12-14T10:41:07;101794.66;;;13.65;62.96
82951;BME280;72737;53.332;6.514;2023-12-14T10:43:56;101799.06;;;13.71;63.22
82951;BME280;72737;53.332;6.514;2023-12-14T10:46:30;101788.59;;;13.58;62.85
82951;BME280;72737;53.332;6.514;2023-12-14T10:49:17;101800.97;;;13.71;62.53
82951;BME280;72737;53.332;6.514;2023-12-14T10:51:46;101767.25;;;13.45;63.06
82951;BME280;72737;53.332;6.514;2023-12-14T10:54:14;101773.25;;;13.42;62.62
82951;BME280;72737;53.332;6.514;2023-12-14T10:56:42;101811.56;;;13.57;62.95
82951;BME280;72737;53.332;6.514;2023-12-14T10:59:15;101772.72;;;13.45;63.25
82951;BME280;72737;53.332;6.514;2023-12-14T11:01:42;101800.34;;;13.59;62.86
82951;BME280;72737;53.332;6.514;2023-12-14T11:04:21;101766.72;;;13.48;63.21
82951;BME280;72737;53.332;6.514;2023-12-14T11:06:48;101792.44;;;13.57;62.81
82951;BME280;72737;53.332;6.514;2023-12-14T11:09:28;101762.34;;;13.42;63.36
82951;BME280;72737;53.332;6.514;2023-12-14T11:11:57;101766.41;;;13.40;63.11
82951;BME280;72737;53.332;6.514;2023-12-14T11:14:40;101772.44;;;13.42;62.72
82951;BME280;72737;53.332;6.514;2023-12-14T11:26:56;101772.44;;;13.42;63.07
82951;BME280;72737;53.332;6.514;2023-12-14T11:29:29;101780.88;;;13.40;63.04
82951;BME280;72737;53.332;6.514;2023-12-14T11:32:28;101832.06;;;13.65;63.26
82951;BME280;72737;53.332;6.514;2023-12-14T11:35:08;101825.22;;;13.57;63.28
82951;BME280;72737;53.332;6.514;2023-12-14T11:37:56;101846.53;;;13.65;62.48
82951;BME280;72737;53.332;6.514;2023-12-14T11:40:38;101848.72;;;13.68;62.47
82951;BME280;72737;53.332;6.514;2023-12-14T11:43:33;101847.63;;;13.64;63.21
82951;BME280;72737;53.332;6.514;2023-12-14T11:46:24;101853.66;;;13.66;63.17
82951;BME280;72737;53.332;6.514;2023-12-14T11:52:13;101817.44;;;13.39;62.84
82951;BME280;72737;53.332;6.514;2023-12-14T11:54:48;101816.94;;;13.42;63.23
82951;BME280;72737;53.332;6.514;2023-12-14T11:57:16;101854.47;;;13.62;62.76
82951;BME280;72737;53.332;6.514;2023-12-14T11:59:50;101871.13;;;13.65;62.46
82951;BME280;72737;53.332;6.514;2023-12-14T12:02:31;101877.13;;;13.62;62.54
82951;BME280;72737;53.332;6.514;2023-12-14T12:05:09;101835.19;;;13.37;63.24
82951;BME280;72737;53.332;6.514;2023-12-14T12:08:13;101873.56;;;13.62;62.67
82951;BME280;72737;53.332;6.514;2023-12-14T12:10:54;101853.19;;;13.32;62.97
82951;BME280;72737;53.332;6.514;2023-12-14T12:13:30;101860.69;;;13.52;62.65
82951;BME280;72737;53.332;6.514;2023-12-14T12:16:32;101886.69;;;13.65;63.21
82951;BME280;72737;53.332;6.514;2023-12-14T12:19:12;101842.59;;;13.41;62.59
82951;BME280;72737;53.332;6.514;2023-12-14T12:21:48;101853.53;;;13.41;62.51
82951;BME280;72737;53.332;6.514;2023-12-14T12:24:31;101886.81;;;13.43;62.72
82951;BME280;72737;53.332;6.514;2023-12-14T12:27:16;101867.50;;;13.50;62.42
82951;BME280;72737;53.332;6.514;2023-12-14T12:29:44;101896.25;;;13.62;63.07
82951;BME280;72737;53.332;6.514;2023-12-14T12:32:30;101905.28;;;13.63;63.20
82951;BME280;72737;53.332;6.514;2023-12-14T12:35:04;101909.38;;;13.65;63.10
82951;BME280;72737;53.332;6.514;2023-12-14T12:37:39;101875.84;;;13.33;62.93
82951;BME280;72737;53.332;6.514;2023-12-14T12:40:17;101887.47;;;13.55;62.81
82951;BME280;72737;53.332;6.514;2023-12-14T12:42:55;101901.44;;;13.64;62.34
82951;BME280;72737;53.332;6.514;2023-12-14T12:45:24;101874.59;;;13.51;62.49
82951;BME280;72737;53.332;6.514;2023-12-14T12:48:07;101862.25;;;13.43;62.22
82951;BME280;72737;53.332;6.514;2023-12-14T12:50:34;101863.06;;;13.44;62.31
82951;BME280;72737;53.332;6.514;2023-12-14T12:53:01;101875.94;;;13.48;62.78
82951;BME280;72737;53.332;6.514;2023-12-14T12:55:53;101903.91;;;13.65;62.34
82951;BME280;72737;53.332;6.514;2023-12-14T12:58:19;101902.25;;;13.64;62.41
82951;BME280;72737;53.332;6.514;2023-12-14T13:00:55;101852.69;;;13.41;62.86
82951;BME280;72737;53.332;6.514;2023-12-14T13:04:17;101894.06;;;13.64;62.12
82951;BME280;72737;53.332;6.514;2023-12-14T13:06:39;101901.97;;;13.61;62.51
82951;BME280;72737;53.332;6.514;2023-12-14T13:09:06;101849.09;;;13.35;62.26
82951;BME280;72737;53.332;6.514;2023-12-14T13:11:33;101900.31;;;13.60;62.83
82951;BME280;72737;53.332;6.514;2023-12-14T13:14:01;101867.75;;;13.48;62.79
82951;BME280;72737;53.332;6.514;2023-12-14T13:16:57;101897.38;;;13.66;62.28
82951;BME280;72737;53.332;6.514;2023-12-14T13:19:28;101892.16;;;13.65;62.81
82951;BME280;72737;53.332;6.514;2023-12-14T13:29:11;101910.16;;;13.61;62.64
82951;BME280;72737;53.332;6.514;2023-12-14T13:31:50;101915.34;;;13.57;62.79
82951;BME280;72737;53.332;6.514;2023-12-14T13:34:47;101940.22;;;13.61;62.28
82951;BME280;72737;53.332;6.514;2023-12-14T13:37:15;101872.59;;;13.36;62.70
82951;BME280;72737;53.332;6.514;2023-12-14T13:39:49;101902.75;;;13.56;62.89
82951;BME280;72737;53.332;6.514;2023-12-14T13:42:17;101882.72;;;13.41;62.51
82951;BME280;72737;53.332;6.514;2023-12-14T13:44:59;101908.94;;;13.42;62.24
82951;BME280;72737;53.332;6.514;2023-12-14T13:47:26;101929.56;;;13.64;62.42
82951;BME280;72737;53.332;6.514;2023-12-14T13:50:21;101925.75;;;13.65;62.17
82951;BME280;72737;53.332;6.514;2023-12-14T13:53:12;101895.31;;;13.42;62.06
82951;BME280;72737;53.332;6.514;2023-12-14T13:55:38;101923.56;;;13.62;62.46
82951;BME280;72737;53.332;6.514;2023-12-14T13:58:03;101945.66;;;13.61;62.79
82951;BME280;72737;53.332;6.514;2023-12-14T14:00:38;101923.78;;;13.56;61.83
82951;BME280;72737;53.332;6.514;2023-12-14T14:03:04;101945.97;;;13.64;62.16
82951;BME280;72737;53.332;6.514;2023-12-14T14:05:49;101947.63;;;13.65;62.71